メインページ
METAR-TAF:

METAR-TAF

空港 :

小松飛行場

小松, 日本

緯度: 36-23N, 経度: 136-25E, 海抜: 6m

現時点の気象観測

当レポートは21分前の07:00(UTC)に作成
の風 13kt
気温 29°C
湿度 62%
気圧 1009 hPa
視程10km以上
高度3000ftの雲はほとんどない
高度8000ftの雲は散在している
高度28000ftの千切れ雲あり

METAR: RJNK 200700Z 36013KT 9999 FEW030 SCT080 BKN280 29/21 Q1009

時間: 16:21 (07:21 UTC)

予報

当レポートは2時間16分前の05:05(UTC)に作成
予報は20日の 06時(UTC)から 21日の 12時(UTC)まで有効
北/北東の風 10kt
視程10km以上
高度3000ftの雲はほとんどない
高度8000ftの千切れ雲あり
20日の 10時(UTC)から 20日の 12時(UTC)まで徐々に
東/南東の風 4kt
21日の 00時(UTC)から 21日の 03時(UTC)まで徐々に
西/南西の風 6kt

TAF: RJNK 200505Z 2006/2112 02010KT 9999 FEW030 BKN080 BECMG 2010/2012 12004KT BECMG 2100/2103 24006KT

4,000以上の空港の気象観測と天気予報(METAR報とTAF報)

利用可能な観測所は地図上に黄色い丸と赤い丸で示す。

丸の上にカーソルを重ねると観測所名を参照できる。

次にクリックすると気象観測と天気予報を参照できる。

マップの切り替え:黒色「×」印の緑ボタンをクリックして拡大、「-」印の緑ボタンをクリックして縮小、緑色の三角印をクリックして隣りの地図に切り替え


METAR-TAF: